createdAt,value
2022-09-30T00:01:37.477Z,99.90
2022-09-30T00:04:05.683Z,99.90
2022-09-30T00:06:35.301Z,99.90
2022-09-30T00:09:03.947Z,99.90
2022-09-30T00:11:34.321Z,99.90
2022-09-30T00:14:03.095Z,99.90
2022-09-30T00:16:34.889Z,99.90
2022-09-30T00:19:09.299Z,99.90
2022-09-30T00:21:37.376Z,99.90
2022-09-30T00:24:05.582Z,99.90
2022-09-30T00:26:34.012Z,99.90
2022-09-30T00:29:01.589Z,99.90
2022-09-30T00:31:31.025Z,99.90
2022-09-30T00:34:08.488Z,99.90
2022-09-30T00:36:38.374Z,99.90
2022-09-30T00:39:08.169Z,99.90
2022-09-30T00:41:39.766Z,99.90
2022-09-30T00:44:26.682Z,99.90
2022-09-30T00:46:56.189Z,99.90
2022-09-30T00:49:25.034Z,99.90
2022-09-30T00:51:56.156Z,99.90
2022-09-30T00:54:26.121Z,99.90
2022-09-30T00:56:55.898Z,99.90
2022-09-30T00:59:26.152Z,99.90
2022-09-30T01:01:54.189Z,99.90
2022-09-30T01:04:23.621Z,99.90
2022-09-30T01:06:52.069Z,99.90
2022-09-30T01:09:20.189Z,99.90
2022-09-30T01:11:48.226Z,99.90
2022-09-30T01:14:17.385Z,99.90
2022-09-30T01:16:56.738Z,99.90
2022-09-30T01:19:33.678Z,99.90
2022-09-30T01:22:01.368Z,99.90
2022-09-30T01:24:36.500Z,99.90
2022-09-30T01:27:10.114Z,99.90
2022-09-30T01:29:40.806Z,99.90
2022-09-30T01:32:18.083Z,99.90
2022-09-30T01:34:45.655Z,99.90
2022-09-30T01:37:32.403Z,99.90
2022-09-30T01:40:04.551Z,99.90
2022-09-30T01:42:38.935Z,99.90
2022-09-30T01:45:18.620Z,99.90
2022-09-30T01:48:01.848Z,99.90
2022-09-30T01:50:36.174Z,99.90
2022-09-30T01:53:09.885Z,99.90
2022-09-30T01:55:59.372Z,99.90
2022-09-30T01:58:35.250Z,99.90
2022-09-30T02:01:06.387Z,99.90
2022-09-30T02:04:31.146Z,99.90
2022-09-30T02:07:01.165Z,99.90
2022-09-30T02:09:30.800Z,99.90
2022-09-30T02:11:59.995Z,99.90
2022-09-30T02:14:27.629Z,99.90
2022-09-30T02:17:00.121Z,99.90
2022-09-30T02:19:33.886Z,99.90
2022-09-30T02:22:05.996Z,99.90
2022-09-30T02:24:37.152Z,99.90
2022-09-30T02:27:07.134Z,99.90
2022-09-30T02:29:40.216Z,99.90
2022-09-30T02:32:14.220Z,99.90
2022-09-30T02:34:46.007Z,99.90
2022-09-30T02:37:17.312Z,99.90
2022-09-30T02:39:50.309Z,99.90
2022-09-30T02:42:23.146Z,99.90
2022-09-30T02:44:52.492Z,99.90
2022-09-30T02:47:40.530Z,99.90
2022-09-30T02:50:13.772Z,99.90
2022-09-30T02:52:45.410Z,99.90
2022-09-30T02:55:33.605Z,99.90
2022-09-30T02:58:08.821Z,99.90
2022-09-30T03:00:41.065Z,99.90
2022-09-30T03:03:15.477Z,99.90
2022-09-30T03:05:44.304Z,99.90
2022-09-30T03:08:12.370Z,99.90
2022-09-30T03:10:44.008Z,99.90
2022-09-30T03:13:21.118Z,99.90
2022-09-30T03:16:09.825Z,99.90
2022-09-30T03:18:41.246Z,99.90
2022-09-30T03:21:25.091Z,99.90
2022-09-30T03:24:09.872Z,99.90
2022-09-30T03:26:46.948Z,99.90
2022-09-30T03:29:24.156Z,99.90
2022-09-30T03:32:07.898Z,99.90
2022-09-30T03:34:55.666Z,99.90
2022-09-30T03:37:30.426Z,99.90
2022-09-30T03:40:02.480Z,99.90
2022-09-30T03:42:37.811Z,99.90
2022-09-30T03:45:09.059Z,99.90
2022-09-30T03:47:40.761Z,99.90
2022-09-30T03:50:09.680Z,99.90
2022-09-30T03:52:37.160Z,99.90
2022-09-30T03:55:06.106Z,99.90
2022-09-30T03:57:34.097Z,99.90
2022-09-30T04:00:01.826Z,99.90
2022-09-30T04:02:32.628Z,99.90
2022-09-30T04:05:00.619Z,99.90
2022-09-30T04:07:28.636Z,99.90
2022-09-30T04:09:56.629Z,99.90
2022-09-30T04:12:24.388Z,99.90
2022-09-30T04:14:52.089Z,99.90
2022-09-30T04:17:19.721Z,99.90
2022-09-30T04:19:47.573Z,99.90
2022-09-30T04:22:16.920Z,99.90
2022-09-30T04:24:45.244Z,99.90
2022-09-30T04:27:13.117Z,99.90
2022-09-30T04:29:40.580Z,99.90
2022-09-30T04:32:09.150Z,99.90
2022-09-30T04:34:38.623Z,99.90
2022-09-30T04:37:10.769Z,99.90
2022-09-30T04:39:38.777Z,99.90
2022-09-30T04:42:12.991Z,99.90
2022-09-30T04:44:40.470Z,99.90
2022-09-30T04:47:08.045Z,99.90
2022-09-30T04:49:35.486Z,99.90
2022-09-30T04:52:03.193Z,99.90
2022-09-30T04:54:30.758Z,99.90
2022-09-30T04:56:58.369Z,99.90
2022-09-30T04:59:26.190Z,99.90
2022-09-30T05:01:53.927Z,99.90
2022-09-30T05:04:21.893Z,99.90
2022-09-30T05:06:49.891Z,99.90
2022-09-30T05:09:24.364Z,99.90
2022-09-30T05:11:55.215Z,99.90
2022-09-30T05:14:24.762Z,99.90
2022-09-30T05:16:53.060Z,99.90
2022-09-30T05:19:20.514Z,99.90
2022-09-30T05:21:48.489Z,99.90
2022-09-30T05:24:16.327Z,99.90
2022-09-30T05:26:44.101Z,99.90
2022-09-30T05:29:11.913Z,99.90
2022-09-30T05:31:39.729Z,99.90
2022-09-30T05:34:07.600Z,99.90
2022-09-30T05:36:35.501Z,99.90
2022-09-30T05:39:03.615Z,99.90
2022-09-30T05:41:31.282Z,99.90
2022-09-30T05:44:01.320Z,99.90
2022-09-30T05:46:30.193Z,99.90
2022-09-30T05:48:58.530Z,99.90
2022-09-30T05:51:26.860Z,99.90
2022-09-30T05:53:55.385Z,99.90
2022-09-30T05:56:23.288Z,99.90
2022-09-30T05:58:51.059Z,99.90
2022-09-30T06:01:18.419Z,99.90
2022-09-30T06:03:46.753Z,99.90
2022-09-30T06:06:16.092Z,99.90
2022-09-30T06:08:43.938Z,99.90
2022-09-30T06:11:12.984Z,99.90
2022-09-30T06:13:41.188Z,99.90
2022-09-30T06:16:09.391Z,99.90
2022-09-30T06:18:39.756Z,99.90
2022-09-30T06:21:08.849Z,99.90
2022-09-30T06:23:37.249Z,99.90
2022-09-30T06:26:07.199Z,99.90
2022-09-30T06:28:36.666Z,99.90
2022-09-30T06:31:05.726Z,99.90
2022-09-30T06:33:33.526Z,99.90
2022-09-30T06:36:04.933Z,99.90
2022-09-30T06:38:34.303Z,99.90
2022-09-30T06:41:03.095Z,99.90
2022-09-30T06:43:33.992Z,99.90
2022-09-30T06:46:17.475Z,99.90
2022-09-30T06:48:48.564Z,99.90
2022-09-30T06:51:17.149Z,99.90
2022-09-30T06:53:44.975Z,99.90
2022-09-30T06:56:15.079Z,99.90
2022-09-30T06:58:43.466Z,99.90
2022-09-30T07:01:14.744Z,99.90
2022-09-30T07:03:44.285Z,99.90
2022-09-30T07:06:12.865Z,99.90
2022-09-30T07:08:41.148Z,99.90
2022-09-30T07:11:14.383Z,99.90
2022-09-30T07:13:46.199Z,99.90
2022-09-30T07:16:14.715Z,99.90
2022-09-30T07:18:42.951Z,99.90
2022-09-30T07:21:12.450Z,99.90
2022-09-30T07:23:47.324Z,99.90
2022-09-30T07:26:16.666Z,99.90
2022-09-30T07:28:45.377Z,99.90
2022-09-30T07:34:09.279Z,99.90
2022-09-30T07:36:38.806Z,99.90
2022-09-30T07:39:10.065Z,99.90
2022-09-30T07:41:39.119Z,99.90
2022-09-30T07:44:09.042Z,99.90
2022-09-30T07:46:40.556Z,99.90
2022-09-30T07:49:12.707Z,99.90
2022-09-30T07:51:43.972Z,99.90
2022-09-30T07:54:13.475Z,99.90
2022-09-30T07:57:08.162Z,99.90
2022-09-30T07:59:31.632Z,99.90
2022-09-30T08:02:02.988Z,99.90
2022-09-30T08:04:31.088Z,99.90
2022-09-30T08:07:00.261Z,99.90
2022-09-30T08:09:29.690Z,99.90
2022-09-30T08:11:57.848Z,99.90
2022-09-30T08:14:26.882Z,99.90
2022-09-30T08:16:56.660Z,99.90
2022-09-30T08:19:25.553Z,99.90
2022-09-30T08:21:55.937Z,99.90
2022-09-30T08:24:24.640Z,99.00
2022-09-30T08:26:52.875Z,99.10
2022-09-30T08:29:42.660Z,95.60
2022-09-30T08:32:14.130Z,94.40
2022-09-30T08:34:41.665Z,93.20
2022-09-30T08:37:10.530Z,92.60
2022-09-30T08:39:38.956Z,92.00
2022-09-30T08:42:40.388Z,90.10
2022-09-30T08:45:30.860Z,90.00
2022-09-30T08:48:03.418Z,82.20
2022-09-30T08:50:43.881Z,87.20
2022-09-30T08:53:15.033Z,80.20
2022-09-30T08:55:43.894Z,80.70
2022-09-30T08:58:21.558Z,75.90
2022-09-30T09:00:57.194Z,89.90
2022-09-30T09:03:30.153Z,75.40
2022-09-30T09:06:04.223Z,83.40
2022-09-30T09:08:31.800Z,78.90
2022-09-30T09:11:28.653Z,79.60
2022-09-30T09:14:00.922Z,81.50
2022-09-30T09:16:48.777Z,79.20
2022-09-30T09:19:25.163Z,81.30
2022-09-30T09:22:02.515Z,85.00
2022-09-30T09:24:39.311Z,80.30
2022-09-30T09:27:28.354Z,78.20
2022-09-30T09:30:01.498Z,80.30
2022-09-30T09:32:29.907Z,81.70
2022-09-30T09:35:21.829Z,85.50
2022-09-30T09:38:25.523Z,84.00
2022-09-30T09:41:02.966Z,86.90
2022-09-30T09:43:44.195Z,90.00
2022-09-30T09:46:15.062Z,91.90
2022-09-30T09:48:44.355Z,92.50
2022-09-30T09:51:11.827Z,91.10
2022-09-30T09:53:39.573Z,92.20
2022-09-30T09:56:18.700Z,91.90
2022-09-30T09:59:05.432Z,93.20
2022-09-30T10:01:33.741Z,94.70
2022-09-30T10:04:24.621Z,97.10
2022-09-30T10:07:12.653Z,99.90
2022-09-30T10:09:41.061Z,99.90
2022-09-30T10:12:09.221Z,99.50
2022-09-30T10:14:46.446Z,99.90
2022-09-30T10:17:20.483Z,99.90
2022-09-30T10:19:54.338Z,99.90
2022-09-30T10:22:27.034Z,99.90
2022-09-30T10:25:09.459Z,98.70
2022-09-30T10:27:37.308Z,97.10
2022-09-30T10:30:06.402Z,99.60
2022-09-30T10:32:33.954Z,99.90
2022-09-30T10:35:22.751Z,99.90
2022-09-30T10:37:51.700Z,98.60
2022-09-30T10:40:28.149Z,98.90
2022-09-30T10:42:55.910Z,97.50
2022-09-30T10:45:36.896Z,94.00
2022-09-30T10:48:08.332Z,97.00
2022-09-30T10:50:36.008Z,98.40
2022-09-30T10:53:05.589Z,98.10
2022-09-30T10:55:42.277Z,97.00
2022-09-30T10:58:28.806Z,98.40
2022-09-30T11:01:17.025Z,98.60
2022-09-30T11:03:49.138Z,97.80
2022-09-30T11:06:22.613Z,99.60
2022-09-30T11:08:57.803Z,97.70
2022-09-30T11:11:27.583Z,99.90
2022-09-30T11:14:04.412Z,99.90
2022-09-30T11:16:47.884Z,95.40
2022-09-30T11:19:36.005Z,94.30
2022-09-30T11:22:12.784Z,84.20
2022-09-30T11:24:48.694Z,78.60
2022-09-30T11:27:16.480Z,72.30
2022-09-30T11:29:50.516Z,70.00
2022-09-30T11:32:40.541Z,70.10
2022-09-30T11:35:20.082Z,73.20
2022-09-30T11:38:10.985Z,75.90
2022-09-30T11:40:43.148Z,78.50
2022-09-30T11:43:26.033Z,80.60
2022-09-30T11:46:10.519Z,82.00
2022-09-30T11:48:50.326Z,88.40
2022-09-30T11:51:21.277Z,87.30
2022-09-30T11:53:51.683Z,90.00
2022-09-30T11:56:26.169Z,91.70
2022-09-30T11:58:55.924Z,91.90
2022-09-30T12:01:32.798Z,92.70
2022-09-30T12:04:03.064Z,93.10
2022-09-30T12:06:33.741Z,95.60
2022-09-30T12:09:06.246Z,94.30
2022-09-30T12:12:02.174Z,96.50
2022-09-30T12:14:36.326Z,97.20
2022-09-30T12:17:08.023Z,97.40
2022-09-30T12:19:44.595Z,97.10
2022-09-30T12:22:17.611Z,95.10
2022-09-30T12:24:48.053Z,97.40
2022-09-30T12:27:23.535Z,98.90
2022-09-30T12:30:18.239Z,99.00
2022-09-30T12:33:05.895Z,98.80
2022-09-30T12:35:49.940Z,98.80
2022-09-30T12:38:17.708Z,98.20
2022-09-30T12:41:00.810Z,94.30
2022-09-30T12:43:30.400Z,96.40
2022-09-30T12:46:13.476Z,94.80
2022-09-30T12:48:50.318Z,93.80
2022-09-30T12:51:31.426Z,93.40
2022-09-30T12:54:22.343Z,94.10
2022-09-30T12:56:54.400Z,93.70
2022-09-30T12:59:30.954Z,95.30
2022-09-30T13:01:58.867Z,95.70
2022-09-30T13:04:33.276Z,93.40
2022-09-30T13:07:00.960Z,90.40
2022-09-30T13:09:47.874Z,87.20
2022-09-30T13:12:16.619Z,79.10
2022-09-30T13:14:44.614Z,80.60
2022-09-30T13:17:12.349Z,81.90
2022-09-30T13:19:44.735Z,84.60
2022-09-30T13:22:18.846Z,81.20
2022-09-30T13:25:05.012Z,78.20
2022-09-30T13:27:44.403Z,84.60
2022-09-30T13:30:18.356Z,85.70
2022-09-30T13:32:59.568Z,89.50
2022-09-30T13:35:30.072Z,85.80
2022-09-30T13:38:14.450Z,87.30
2022-09-30T13:41:03.057Z,83.20
2022-09-30T13:43:30.939Z,82.00
2022-09-30T13:45:59.288Z,79.80
2022-09-30T13:48:35.393Z,73.90
2022-09-30T13:51:08.812Z,72.10
2022-09-30T13:53:40.569Z,76.10
2022-09-30T13:56:33.091Z,71.70
2022-09-30T13:59:18.824Z,72.50
2022-09-30T14:01:59.763Z,71.20
2022-09-30T14:04:47.578Z,70.60
2022-09-30T14:07:16.547Z,75.70
2022-09-30T14:09:56.106Z,77.00
2022-09-30T14:12:35.076Z,69.20
2022-09-30T14:15:33.280Z,71.20
2022-09-30T14:18:22.966Z,73.80
2022-09-30T14:20:54.252Z,76.70
2022-09-30T14:23:22.422Z,74.60
2022-09-30T14:25:57.392Z,77.80
2022-09-30T14:28:35.085Z,79.80
2022-09-30T14:31:13.772Z,74.10
2022-09-30T14:33:45.343Z,74.20
2022-09-30T14:36:18.097Z,77.10
2022-09-30T14:38:47.720Z,75.70
2022-09-30T14:41:18.386Z,72.60
2022-09-30T14:43:47.057Z,74.00
2022-09-30T14:46:25.042Z,73.40
2022-09-30T14:48:58.996Z,73.70
2022-09-30T14:51:35.693Z,77.20
2022-09-30T14:54:04.581Z,77.80
2022-09-30T14:56:35.537Z,80.00
2022-09-30T14:59:20.442Z,79.30
2022-09-30T15:01:49.296Z,80.30
2022-09-30T15:04:19.446Z,80.40
2022-09-30T15:06:48.934Z,79.50
2022-09-30T15:09:18.559Z,77.30
2022-09-30T15:11:47.248Z,78.70
2022-09-30T15:14:19.377Z,78.10
2022-09-30T15:16:50.356Z,80.10
2022-09-30T15:19:20.117Z,79.70
2022-09-30T15:21:49.160Z,82.20
2022-09-30T15:24:18.151Z,79.00
2022-09-30T15:26:51.765Z,81.80
2022-09-30T15:29:26.049Z,80.00
2022-09-30T15:38:25.857Z,80.20
2022-09-30T15:41:04.883Z,81.90
2022-09-30T15:43:42.625Z,83.30
2022-09-30T15:46:37.293Z,82.20
2022-09-30T15:49:29.167Z,85.80
2022-09-30T15:52:19.858Z,84.20
2022-09-30T15:54:47.427Z,85.30
2022-09-30T15:57:33.804Z,85.60
2022-09-30T16:00:09.359Z,85.80
2022-09-30T16:02:39.659Z,86.80
2022-09-30T16:05:11.745Z,89.50
2022-09-30T16:07:42.133Z,90.60
2022-09-30T16:10:18.271Z,91.30
2022-09-30T16:12:49.570Z,92.90
2022-09-30T16:15:17.781Z,93.50
2022-09-30T16:17:47.244Z,93.10
2022-09-30T16:20:14.904Z,94.20
2022-09-30T16:22:43.203Z,95.00
2022-09-30T16:25:33.729Z,95.80
2022-09-30T16:28:12.561Z,96.00
2022-09-30T16:30:59.313Z,96.90
2022-09-30T16:33:27.117Z,97.00
2022-09-30T16:35:55.417Z,97.70
2022-09-30T16:38:23.142Z,98.40
2022-09-30T16:40:51.516Z,98.90
2022-09-30T16:43:19.649Z,99.50
2022-09-30T16:45:47.447Z,99.90
2022-09-30T16:48:21.961Z,99.90
2022-09-30T16:50:51.578Z,99.90
2022-09-30T16:53:19.219Z,99.90
2022-09-30T16:55:48.211Z,99.90
2022-09-30T16:58:16.255Z,99.90
2022-09-30T17:00:47.205Z,99.90
2022-09-30T17:03:16.179Z,99.90
2022-09-30T17:05:44.709Z,99.90
2022-09-30T17:08:16.655Z,99.90
2022-09-30T17:10:46.415Z,99.90
2022-09-30T17:13:17.453Z,99.90
2022-09-30T17:15:51.686Z,99.90
2022-09-30T17:18:20.166Z,99.90
2022-09-30T17:20:54.763Z,99.90
2022-09-30T17:23:23.458Z,99.90
2022-09-30T17:25:51.418Z,99.90
2022-09-30T17:28:19.300Z,99.90
2022-09-30T17:30:50.793Z,99.90
2022-09-30T17:33:20.096Z,99.90
2022-09-30T17:36:02.387Z,99.90
2022-09-30T17:38:30.473Z,99.90
2022-09-30T17:41:20.286Z,99.90
2022-09-30T17:43:47.969Z,99.90
2022-09-30T17:46:21.665Z,99.90
2022-09-30T17:48:50.976Z,99.90
2022-09-30T17:51:23.324Z,99.90
2022-09-30T17:53:51.313Z,99.90
2022-09-30T17:56:20.772Z,99.90
2022-09-30T17:58:50.824Z,99.90
2022-09-30T18:01:20.546Z,99.90
2022-09-30T18:03:52.958Z,99.90
2022-09-30T18:06:21.018Z,99.90
2022-09-30T18:08:52.694Z,99.90
2022-09-30T18:11:22.255Z,99.90
2022-09-30T18:13:55.933Z,99.90
2022-09-30T18:16:30.676Z,99.90
2022-09-30T18:19:00.991Z,99.90
2022-09-30T18:21:29.501Z,99.90
2022-09-30T18:23:58.293Z,99.90
2022-09-30T18:26:33.060Z,99.90
2022-09-30T18:29:07.812Z,99.90
2022-09-30T18:31:37.259Z,99.90
2022-09-30T18:34:06.539Z,99.90
2022-09-30T18:36:34.360Z,99.90
2022-09-30T18:39:03.026Z,99.90
2022-09-30T18:41:32.215Z,99.90
2022-09-30T18:44:02.835Z,99.90
2022-09-30T18:46:31.121Z,99.90
2022-09-30T18:48:58.656Z,99.90
2022-09-30T18:51:26.351Z,99.90
2022-09-30T18:53:57.659Z,99.90
2022-09-30T18:56:26.677Z,99.90
2022-09-30T18:58:54.335Z,99.90
2022-09-30T19:01:22.417Z,99.90
2022-09-30T19:03:50.398Z,99.90
2022-09-30T19:06:18.002Z,99.90
2022-09-30T19:08:45.683Z,99.90
2022-09-30T19:11:17.752Z,99.90
2022-09-30T19:13:48.161Z,99.90
2022-09-30T19:16:18.484Z,99.90
2022-09-30T19:18:47.180Z,99.90
2022-09-30T19:21:20.301Z,99.90
2022-09-30T19:24:25.318Z,99.90
2022-09-30T19:26:55.146Z,99.90
2022-09-30T19:29:25.027Z,99.90
2022-09-30T19:31:53.465Z,99.90
2022-09-30T19:34:30.491Z,99.90
2022-09-30T19:37:00.133Z,99.90
2022-09-30T19:39:41.414Z,99.90
2022-09-30T19:42:14.482Z,99.90
2022-09-30T19:44:42.318Z,99.90
2022-09-30T19:47:10.139Z,99.90
2022-09-30T19:49:37.845Z,99.90
2022-09-30T19:52:21.139Z,99.90
2022-09-30T19:54:50.826Z,99.90
2022-09-30T19:57:18.606Z,99.90
2022-09-30T19:59:46.602Z,99.90
2022-09-30T20:02:14.242Z,99.90
2022-09-30T20:04:42.668Z,99.90
2022-09-30T20:07:10.631Z,99.90
2022-09-30T20:09:38.437Z,99.90
2022-09-30T20:12:07.810Z,99.90
2022-09-30T20:14:54.507Z,99.90
2022-09-30T20:17:22.854Z,99.90
2022-09-30T20:20:14.938Z,99.90
2022-09-30T20:22:46.244Z,99.90
2022-09-30T20:25:14.500Z,99.90
2022-09-30T20:27:43.041Z,99.90
2022-09-30T20:30:10.986Z,99.90
2022-09-30T20:32:39.039Z,99.90
2022-09-30T20:35:09.044Z,99.90
2022-09-30T20:37:36.616Z,99.90
2022-09-30T20:40:04.846Z,99.90
2022-09-30T20:42:32.849Z,99.90
2022-09-30T20:45:01.171Z,99.90
2022-09-30T20:47:28.746Z,99.90
2022-09-30T20:49:58.460Z,99.90
2022-09-30T20:52:26.405Z,99.90
2022-09-30T20:54:54.239Z,99.90
2022-09-30T20:57:22.038Z,99.90
2022-09-30T20:59:49.483Z,99.90
2022-09-30T21:02:17.484Z,99.90
2022-09-30T21:04:47.568Z,99.90
2022-09-30T21:07:18.800Z,99.90
2022-09-30T21:09:46.386Z,99.90
2022-09-30T21:12:14.702Z,99.90
2022-09-30T21:14:43.496Z,99.90
2022-09-30T21:17:11.629Z,99.90
2022-09-30T21:19:40.072Z,99.90
2022-09-30T21:22:08.158Z,99.90
2022-09-30T21:24:36.296Z,99.90
2022-09-30T21:27:05.962Z,99.90
2022-09-30T21:29:33.821Z,99.90
2022-09-30T21:32:01.716Z,99.90
2022-09-30T21:34:30.264Z,99.90
2022-09-30T21:36:58.023Z,99.90
2022-09-30T21:39:29.236Z,99.90
2022-09-30T21:41:56.914Z,99.90
2022-09-30T21:44:25.789Z,99.90
2022-09-30T21:46:53.603Z,99.90
2022-09-30T21:49:22.993Z,99.90
2022-09-30T21:51:53.012Z,99.90
2022-09-30T21:54:20.964Z,99.90
2022-09-30T21:56:54.694Z,99.90
2022-09-30T21:59:22.320Z,99.90
2022-09-30T22:02:02.246Z,99.90
2022-09-30T22:04:30.338Z,99.90
2022-09-30T22:06:58.035Z,99.90
2022-09-30T22:09:25.730Z,99.90
2022-09-30T22:11:53.928Z,99.90
2022-09-30T22:14:25.608Z,99.90
2022-09-30T22:16:56.334Z,99.90
2022-09-30T22:19:23.991Z,99.90
2022-09-30T22:21:51.733Z,99.90
2022-09-30T22:24:21.148Z,99.90
2022-09-30T22:26:49.253Z,99.90
2022-09-30T22:29:16.986Z,99.90
2022-09-30T22:31:44.896Z,99.90
2022-09-30T22:34:32.969Z,99.90
2022-09-30T22:37:22.814Z,99.90
2022-09-30T22:39:50.651Z,99.90
2022-09-30T22:42:18.496Z,99.90
2022-09-30T22:44:47.999Z,99.90
2022-09-30T22:47:16.488Z,99.90
2022-09-30T22:49:44.913Z,99.90
2022-09-30T22:52:13.741Z,99.90
2022-09-30T22:54:42.022Z,99.90
2022-09-30T22:57:12.279Z,99.90
2022-09-30T22:59:41.955Z,99.90
2022-09-30T23:02:09.910Z,99.90
2022-09-30T23:04:37.713Z,99.90
2022-09-30T23:07:09.212Z,99.90
2022-09-30T23:10:09.356Z,99.90
2022-09-30T23:12:37.892Z,99.90
2022-09-30T23:15:07.838Z,99.90
2022-09-30T23:17:36.130Z,99.90
2022-09-30T23:20:05.454Z,99.90
2022-09-30T23:22:33.791Z,99.90
2022-09-30T23:25:02.938Z,99.90
2022-09-30T23:27:34.176Z,99.90
2022-09-30T23:30:02.352Z,99.90
2022-09-30T23:32:31.116Z,99.90
2022-09-30T23:34:58.944Z,99.90
2022-09-30T23:37:28.147Z,99.90
2022-09-30T23:39:56.053Z,99.90
2022-09-30T23:42:25.244Z,99.90
2022-09-30T23:44:53.511Z,99.90
2022-09-30T23:47:21.601Z,99.90
2022-09-30T23:49:50.687Z,99.90
2022-09-30T23:52:18.556Z,99.90
2022-09-30T23:54:46.132Z,99.90
2022-09-30T23:57:14.287Z,99.90
2022-09-30T23:59:43.293Z,99.90
